< Cyclone 198611 1986 Season Cyclone 198613 >
Cyclone 198612 (ALISON)
General InformationTrack Information on Google MapsDetailed Wind InformationList of All Images || ResourceGoogle EarthGE AnimationAtom FeedGeoJSON
Detalied Best Track (Time Zone = UTC)
Year Month Day Hour Lat. Long. Pressure (hPa) Wind (kt) Class Image Chart
1986 4 4 18 -11.2 105.2 1003 23 2 Image --
1986 4 5 00 -10.9 104.6 1003 23 2 Image --
1986 4 5 06 -10.8 104.0 1003 23 2 Image --
1986 4 5 12 -10.8 103.4 1003 23 2 Image --
1986 4 5 18 -10.8 102.9 1003 23 2 Image --
1986 4 6 00 -10.7 102.4 1003 23 2 Image --
1986 4 6 06 -10.7 102.0 1001 27 2 Image --
1986 4 6 12 -10.6 101.6 1001 27 2 Image --
1986 4 6 18 -10.6 101.4 1000 31 2 Image --
1986 4 7 00 -10.6 101.2 998 33 2 Image --
1986 4 7 06 -10.7 100.7 997 35 3 Image --
1986 4 7 12 -11.0 99.6 997 35 3 Image --
1986 4 7 18 -11.0 98.7 995 39 3 Image --
1986 4 7 21 -11.0 98.3 993 43 3 Image --
1986 4 8 00 -11.2 97.9 991 45 3 Image --
1986 4 8 03 -11.3 97.4 991 45 3 Image --
1986 4 8 06 -11.3 96.9 991 45 3 Image --
1986 4 8 09 -11.3 96.4 991 45 3 Image --
1986 4 8 12 -11.5 96.0 990 47 3 Image --
1986 4 8 16 -11.6 95.2 990 47 3 Image --
1986 4 8 18 -11.7 94.9 988 51 4 Image --
1986 4 9 00 -11.8 93.5 984 54 4 Image --
1986 4 9 06 -12.5 92.1 982 58 4 Image --
1986 4 9 12 -13.4 91.0 978 64 5 Image --
1986 4 9 18 -14.0 89.8 974 68 5 Image --
< Cyclone 198611 1986 Season Cyclone 198613 >

Help